createdAt,value
2022-12-27T00:01:46.377Z,4.88
2022-12-27T00:11:48.813Z,4.82
2022-12-27T00:21:51.021Z,4.77
2022-12-27T00:31:53.250Z,3.99
2022-12-27T00:41:55.515Z,3.52
2022-12-27T00:51:57.702Z,3.20
2022-12-27T01:02:00.156Z,2.89
2022-12-27T01:12:02.416Z,2.60
2022-12-27T01:22:05.604Z,2.63
2022-12-27T01:32:08.774Z,2.37
2022-12-27T01:42:37.878Z,2.38
2022-12-27T01:52:45.948Z,2.26
2022-12-27T02:02:49.436Z,1.94
2022-12-27T02:12:51.982Z,1.76
2022-12-27T02:23:17.402Z,1.48
2022-12-27T02:33:25.102Z,1.08
2022-12-27T02:43:46.726Z,1.14
2022-12-27T02:54:08.632Z,0.99
2022-12-27T03:04:22.676Z,0.86
2022-12-27T03:14:56.190Z,0.71
2022-12-27T03:25:18.335Z,0.87
2022-12-27T03:35:22.601Z,0.68
2022-12-27T03:45:51.070Z,0.52
2022-12-27T03:55:53.848Z,0.43
2022-12-27T04:05:56.060Z,0.46
2022-12-27T04:16:16.848Z,0.63
2022-12-27T04:26:37.968Z,0.87
2022-12-27T04:36:40.275Z,1.11
2022-12-27T04:47:01.085Z,0.82
2022-12-27T04:57:03.474Z,0.66
2022-12-27T05:07:27.011Z,0.52
2022-12-27T05:17:30.259Z,0.30
2022-12-27T05:27:32.495Z,0.21
2022-12-27T05:37:34.751Z,0.08
2022-12-27T05:47:36.927Z,0.01
2022-12-27T05:57:39.400Z,-0.16
2022-12-27T06:07:41.627Z,-0.13
2022-12-27T06:17:44.112Z,-0.30
2022-12-27T06:27:46.585Z,-0.23
2022-12-27T06:37:48.801Z,-0.36
2022-12-27T06:47:51.077Z,-0.43
2022-12-27T06:57:53.369Z,-0.55
2022-12-27T07:07:55.623Z,-0.39
2022-12-27T07:17:57.844Z,-0.32
2022-12-27T07:28:00.195Z,-0.25
2022-12-27T07:38:02.387Z,-0.11
2022-12-27T07:48:04.909Z,0.12
2022-12-27T07:58:07.192Z,0.13
2022-12-27T08:08:09.506Z,0.03
2022-12-27T08:18:11.705Z,0.16
2022-12-27T08:28:15.955Z,0.36
2022-12-27T08:38:18.535Z,0.48
2022-12-27T08:48:20.743Z,0.72
2022-12-27T08:58:23.686Z,0.87
2022-12-27T09:08:25.900Z,1.05
2022-12-27T09:18:28.143Z,1.55
2022-12-27T09:28:30.626Z,1.52
2022-12-27T09:38:32.909Z,1.38
2022-12-27T09:48:39.633Z,1.79
2022-12-27T09:58:48.622Z,1.96
2022-12-27T10:09:11.105Z,1.80
2022-12-27T10:19:29.993Z,2.35
2022-12-27T10:29:33.250Z,2.53
2022-12-27T10:39:37.415Z,2.64
2022-12-27T10:49:41.335Z,2.81
2022-12-27T10:59:43.735Z,3.06
2022-12-27T11:09:51.151Z,2.79
2022-12-27T11:19:55.067Z,2.52
2022-12-27T11:29:59.222Z,2.65
2022-12-27T11:40:23.090Z,2.55
2022-12-27T11:50:28.419Z,2.64
2022-12-27T12:00:44.197Z,2.57
2022-12-27T12:11:15.555Z,2.56
2022-12-27T12:21:33.714Z,2.40
2022-12-27T12:32:18.591Z,2.21
2022-12-27T12:42:23.347Z,2.20
2022-12-27T12:52:30.720Z,1.97
2022-12-27T13:03:04.534Z,1.86
2022-12-27T13:13:18.413Z,1.88
2022-12-27T13:23:34.213Z,1.88
2022-12-27T13:33:37.001Z,1.91
2022-12-27T13:44:04.071Z,1.86
2022-12-27T13:54:06.449Z,1.73
2022-12-27T14:04:30.008Z,1.76
2022-12-27T14:14:37.173Z,1.79
2022-12-27T14:25:07.401Z,1.68
2022-12-27T14:35:28.419Z,1.71
2022-12-27T14:45:33.427Z,1.86
2022-12-27T14:55:38.605Z,1.85
2022-12-27T15:06:13.349Z,1.96
2022-12-27T15:16:46.905Z,1.73
2022-12-27T15:27:19.670Z,1.69
2022-12-27T15:37:47.086Z,1.60
2022-12-27T15:47:58.729Z,1.85
2022-12-27T15:58:15.214Z,1.82
2022-12-27T16:08:28.583Z,1.69
2022-12-27T16:18:33.895Z,1.62
2022-12-27T16:28:37.573Z,1.14
2022-12-27T16:38:45.271Z,0.94
2022-12-27T16:49:23.276Z,0.92
2022-12-27T16:59:56.968Z,0.67
2022-12-27T17:10:25.368Z,0.46
2022-12-27T17:20:31.006Z,0.37
2022-12-27T17:30:48.501Z,0.28
2022-12-27T17:41:03.974Z,0.36
2022-12-27T17:51:11.359Z,0.32
2022-12-27T18:01:14.091Z,0.32
2022-12-27T18:11:17.204Z,0.29
2022-12-27T18:21:28.552Z,0.34
2022-12-27T18:31:53.051Z,0.22
2022-12-27T18:41:57.050Z,0.22
2022-12-27T18:52:00.076Z,0.19
2022-12-27T19:02:23.532Z,0.25
2022-12-27T19:12:40.725Z,0.47
2022-12-27T19:22:55.860Z,0.46
2022-12-27T19:32:58.318Z,0.36
2022-12-27T19:43:00.607Z,0.19
2022-12-27T19:53:03.573Z,0.33
2022-12-27T20:03:05.854Z,0.38
2022-12-27T20:13:09.402Z,0.28
2022-12-27T20:23:12.652Z,0.36
2022-12-27T20:33:16.062Z,0.26
2022-12-27T20:43:18.707Z,0.12
2022-12-27T20:53:21.237Z,0.43
2022-12-27T21:03:23.618Z,0.64
2022-12-27T21:13:26.121Z,0.59
2022-12-27T21:23:32.796Z,0.60
2022-12-27T21:40:12.154Z,0.72
2022-12-27T21:50:14.398Z,0.63
2022-12-27T22:00:16.932Z,0.47
2022-12-27T22:10:19.321Z,0.42
2022-12-27T22:20:21.584Z,0.16
2022-12-27T22:30:23.805Z,-0.04
2022-12-27T22:40:40.805Z,0.07
2022-12-27T22:50:47.761Z,0.26
2022-12-27T23:00:49.938Z,0.23
2022-12-27T23:10:52.338Z,0.27
2022-12-27T23:21:21.357Z,0.30
2022-12-27T23:31:19.155Z,0.35
2022-12-27T23:41:24.018Z,0.37
2022-12-27T23:51:27.134Z,0.32
